Time;durP1;ratioP1;P1;durP2;ratioP2;P2;SDS_P1;SDS_P2;PMS_P1;PMS_P2;Temp;Humidity;BMP_temperature;BMP_pressure;BME280_temperature;BME280_humidity;BME280_pressure;Samples;Min_cycle;Max_cycle;Signal;HPM_P1;HPM_P2
2022/08/30 00:02:16;;;;;;;5.32;3.70;;;;;;;18.02;58.99;95874.22;4974949;28;20209;-82
2022/08/30 00:04:41;;;;;;;5.97;4.22;;;;;;;17.97;59.23;95881.03;4956788;28;20183;-82
2022/08/30 00:07:06;;;;;;;5.75;4.30;;;;;;;17.89;59.31;95879.31;4975586;28;20211;-83
2022/08/30 00:09:32;;;;;;;5.90;4.22;;;;;;;17.81;59.92;95882.88;4959127;28;20215;-83
2022/08/30 00:11:57;;;;;;;5.45;3.85;;;;;;;17.76;60.25;95884.44;4959223;28;20269;-83
2022/08/30 00:14:24;;;;;;;4.45;4.05;;;;;;;17.69;60.68;95888.75;4965250;28;20835;-83
2022/08/30 00:16:49;;;;;;;5.53;4.10;;;;;;;17.62;61.16;95882.59;4975916;28;20225;-82
2022/08/30 00:19:15;;;;;;;5.82;4.45;;;;;;;17.56;61.88;95884.13;4972688;28;20659;-82
2022/08/30 00:21:40;;;;;;;5.75;4.65;;;;;;;17.54;62.48;95889.56;4973863;28;20184;-83
2022/08/30 00:24:05;;;;;;;4.70;3.97;;;;;;;17.46;63.52;95878.34;4957762;28;20211;-83
2022/08/30 00:26:31;;;;;;;5.03;3.92;;;;;;;17.38;63.66;95878.44;4958365;28;20235;-82
2022/08/30 00:28:57;;;;;;;7.43;4.10;;;;;;;17.33;64.40;95886.06;4974979;28;20187;-82
2022/08/30 00:31:22;;;;;;;5.60;4.38;;;;;;;17.27;64.61;95880.53;4975270;28;20199;-83
2022/08/30 00:33:48;;;;;;;6.97;4.40;;;;;;;17.23;64.69;95887.16;4958023;28;20187;-82
2022/08/30 00:36:14;;;;;;;6.82;4.78;;;;;;;17.29;64.46;95888.22;4961226;28;20211;-81
2022/08/30 00:38:40;;;;;;;6.60;4.68;;;;;;;17.26;64.03;95883.34;4969056;28;20184;-82
2022/08/30 00:41:05;;;;;;;8.63;4.30;;;;;;;17.26;63.72;95878.91;4955457;28;20195;-82
2022/08/30 00:43:33;;;;;;;6.78;4.53;;;;;;;17.26;63.91;95883.34;4974886;28;20696;-82
2022/08/30 00:46:03;;;;;;;6.35;4.93;;;;;;;17.23;64.38;95881.91;4989318;28;20199;-82
2022/08/30 00:48:29;;;;;;;7.07;4.93;;;;;;;17.20;64.70;95887.50;4994922;28;20204;-82
2022/08/30 00:51:00;;;;;;;5.07;3.95;;;;;;;17.23;64.35;95881.91;5001260;28;20248;-82
2022/08/30 00:53:28;;;;;;;7.25;4.82;;;;;;;17.20;64.96;95887.50;4968294;28;20667;-82
2022/08/30 00:55:54;;;;;;;8.07;4.93;;;;;;;17.20;65.09;95879.63;4959028;28;20251;-82
2022/08/30 00:58:24;;;;;;;7.22;5.63;;;;;;;17.21;65.52;95886.50;4959182;28;20242;-82
2022/08/30 01:00:53;;;;;;;6.40;4.45;;;;;;;17.22;65.44;95889.94;4953767;28;20574;-82
2022/08/30 01:03:18;;;;;;;5.43;4.72;;;;;;;17.18;65.75;95886.84;4958474;28;20206;-83
2022/08/30 01:05:45;;;;;;;6.93;4.70;;;;;;;17.19;65.88;95888.47;4973737;28;20207;-83
2022/08/30 01:08:10;;;;;;;5.90;4.72;;;;;;;17.17;66.38;95892.28;4958109;28;20191;-82
2022/08/30 01:10:36;;;;;;;5.70;4.63;;;;;;;17.19;66.29;95893.72;4957601;28;20643;-82
2022/08/30 01:13:02;;;;;;;10.05;5.18;;;;;;;17.19;66.68;95892.91;4968324;28;20191;-82
2022/08/30 01:15:27;;;;;;;7.72;5.25;;;;;;;17.18;66.68;95891.28;4949965;28;20216;-82
2022/08/30 01:17:54;;;;;;;5.63;4.50;;;;;;;17.18;66.26;95886.84;4966762;28;20188;-83
2022/08/30 01:20:23;;;;;;;6.22;5.05;;;;;;;17.19;66.32;95878.00;4974544;28;20199;-82
2022/08/30 01:22:49;;;;;;;6.70;4.65;;;;;;;17.21;66.80;95881.25;4958022;28;20199;-83
2022/08/30 01:25:17;;;;;;;7.47;4.78;;;;;;;17.23;66.83;95881.91;4970993;28;20243;-83
2022/08/30 01:27:46;;;;;;;6.85;5.70;;;;;;;17.22;66.95;95882.88;4969302;28;20188;-83
2022/08/30 01:30:12;;;;;;;8.32;4.95;;;;;;;17.23;66.72;95886.34;4957050;28;20187;-83
2022/08/30 01:32:40;;;;;;;6.13;5.25;;;;;;;17.20;67.14;95886.66;4954980;28;20728;-83
2022/08/30 01:35:09;;;;;;;6.30;5.00;;;;;;;17.21;67.04;95883.88;4954323;28;20212;-82
2022/08/30 01:37:35;;;;;;;7.43;4.72;;;;;;;17.20;66.82;95884.03;4973882;28;20188;-83
2022/08/30 01:40:00;;;;;;;7.85;5.13;;;;;;;17.16;66.96;95885.41;4955801;28;20206;-82
2022/08/30 01:42:27;;;;;;;7.82;4.75;;;;;;;17.15;67.30;95892.47;4980411;28;20204;-82
2022/08/30 01:44:52;;;;;;;5.70;5.10;;;;;;;17.13;66.83;95883.94;4972675;28;20188;-82
2022/08/30 01:47:18;;;;;;;6.60;5.15;;;;;;;17.13;66.84;95885.75;4955018;28;20234;-82
2022/08/30 01:49:45;;;;;;;7.22;4.90;;;;;;;17.13;66.89;95889.19;4959375;28;20206;-82
2022/08/30 01:52:10;;;;;;;8.73;5.30;;;;;;;17.14;66.34;95880.34;4958323;28;20180;-82
2022/08/30 01:54:39;;;;;;;6.35;4.90;;;;;;;17.09;66.43;95877.44;4956860;28;20692;-83
2022/08/30 01:57:11;;;;;;;6.57;5.07;;;;;;;17.05;66.76;95880.59;4971190;28;20324;-82
2022/08/30 01:59:38;;;;;;;6.35;4.93;;;;;;;17.05;66.84;95873.56;4966837;28;20181;-82
2022/08/30 02:02:04;;;;;;;5.82;5.15;;;;;;;16.99;66.93;95876.88;4970078;28;20203;-82
2022/08/30 02:04:29;;;;;;;9.77;5.55;;;;;;;16.95;67.00;95873.78;4957019;28;20223;-82
2022/08/30 02:06:55;;;;;;;6.68;4.95;;;;;;;16.97;66.84;95871.84;4970673;28;20251;-82
2022/08/30 02:09:20;;;;;;;5.93;5.43;;;;;;;16.96;66.80;95874.59;4968015;28;20192;-82
2022/08/30 02:11:47;;;;;;;8.68;5.35;;;;;;;16.95;66.99;95871.16;4962532;28;20203;-83
2022/08/30 02:14:12;;;;;;;5.43;4.90;;;;;;;16.93;67.07;95874.97;4972675;28;20187;-82
2022/08/30 02:16:38;;;;;;;8.52;5.07;;;;;;;16.91;67.22;95871.72;4979986;28;20230;-82
2022/08/30 02:19:04;;;;;;;6.38;4.88;;;;;;;16.85;67.94;95873.25;4980265;28;20707;-83
2022/08/30 02:21:29;;;;;;;7.82;5.13;;;;;;;16.84;67.90;95876.03;4964137;28;20274;-83
2022/08/30 02:23:55;;;;;;;7.50;5.18;;;;;;;16.80;68.33;95872.16;4997195;28;20211;-82
2022/08/30 02:26:21;;;;;;;6.18;5.38;;;;;;;16.78;68.43;95868.88;4976241;28;20247;-82
2022/08/30 02:28:47;;;;;;;8.48;6.03;;;;;;;16.75;68.37;95867.44;4979678;28;20187;-82
2022/08/30 02:31:12;;;;;;;7.32;6.00;;;;;;;16.73;68.43;95868.63;4975177;28;20180;-83
2022/08/30 02:33:38;;;;;;;8.98;5.38;;;;;;;16.78;68.31;95868.88;4973997;28;20186;-82
2022/08/30 02:36:05;;;;;;;7.38;5.55;;;;;;;16.79;68.21;95866.09;4960045;28;20204;-83
2022/08/30 02:38:30;;;;;;;9.57;5.72;;;;;;;16.81;68.19;95863.31;4963776;28;20191;-82
2022/08/30 02:40:55;;;;;;;7.80;5.85;;;;;;;16.79;68.29;95862.66;4962409;28;20194;-82
2022/08/30 02:43:21;;;;;;;8.05;5.43;;;;;;;16.86;68.29;95860.94;4963282;28;20219;-82
2022/08/30 02:45:46;;;;;;;8.02;5.40;;;;;;;16.89;68.33;95860.59;4996416;28;20601;-82
2022/08/30 02:48:11;;;;;;;7.22;5.53;;;;;;;16.86;68.22;95850.44;4973800;28;20671;-82
2022/08/30 02:50:41;;;;;;;6.10;5.50;;;;;;;16.82;68.42;95841.31;4990326;28;20188;-82
2022/08/30 02:53:06;;;;;;;9.68;5.80;;;;;;;16.85;67.98;95847.00;4987112;28;20204;-82
2022/08/30 02:55:32;;;;;;;6.75;5.40;;;;;;;16.80;68.20;95838.06;5002979;28;20187;-82
2022/08/30 02:57:57;;;;;;;10.13;5.88;;;;;;;16.75;68.31;95841.22;5001098;28;20184;-83
2022/08/30 03:00:22;;;;;;;8.70;6.18;;;;;;;16.77;68.63;95836.59;4999316;28;20203;-82
2022/08/30 03:02:48;;;;;;;7.85;5.80;;;;;;;16.73;68.76;95837.16;4994796;28;20244;-82
2022/08/30 03:05:15;;;;;;;7.22;5.35;;;;;;;16.77;68.29;95835.78;4980630;28;20187;-82
2022/08/30 03:07:40;;;;;;;7.38;5.32;;;;;;;16.80;68.16;95830.19;4965062;28;20213;-82
2022/08/30 03:10:06;;;;;;;8.25;5.60;;;;;;;16.77;68.54;95831.34;4972967;28;20603;-83
2022/08/30 03:12:32;;;;;;;6.80;5.68;;;;;;;16.79;68.20;95836.44;4964018;28;20241;-82
2022/08/30 03:14:57;;;;;;;8.10;5.63;;;;;;;16.74;68.39;95836.16;4962926;28;20184;-83
2022/08/30 03:17:23;;;;;;;8.55;5.95;;;;;;;16.75;68.38;95838.59;4979511;28;20261;-83
2022/08/30 03:19:48;;;;;;;6.90;5.18;;;;;;;16.77;68.44;95826.09;4962915;28;20659;-81
2022/08/30 03:22:14;;;;;;;7.03;5.82;;;;;;;16.74;68.59;95831.72;4959694;28;20754;-82
2022/08/30 03:24:39;;;;;;;7.75;5.65;;;;;;;16.75;68.41;95833.34;4969282;28;20226;-82
2022/08/30 03:27:04;;;;;;;10.90;6.05;;;;;;;16.70;68.77;95820.78;4969392;28;20215;-82
2022/08/30 03:29:30;;;;;;;8.35;6.20;;;;;;;16.70;68.62;95819.97;4964883;28;20199;-82
2022/08/30 03:31:56;;;;;;;6.70;5.55;;;;;;;16.68;68.78;95819.28;4976013;28;20567;-82
2022/08/30 03:34:22;;;;;;;6.18;5.55;;;;;;;16.68;68.96;95820.13;4974907;28;20255;-82
2022/08/30 03:36:48;;;;;;;8.63;6.35;;;;;;;16.63;69.46;95822.47;4974187;28;20575;-82
2022/08/30 03:39:14;;;;;;;9.10;6.20;;;;;;;16.63;69.48;95830.31;4993744;28;20184;-82
2022/08/30 03:41:39;;;;;;;6.53;5.40;;;;;;;16.63;69.83;95830.31;4958136;28;20188;-82
2022/08/30 03:44:05;;;;;;;7.18;5.80;;;;;;;16.58;69.62;95827.41;4992954;28;20191;-83
2022/08/30 03:46:30;;;;;;;12.45;6.57;;;;;;;16.53;70.13;95824.53;4959328;28;20679;-83
2022/08/30 03:48:55;;;;;;;9.77;6.47;;;;;;;16.52;70.41;95822.91;4975639;28;20238;-83
2022/08/30 03:51:22;;;;;;;7.85;6.28;;;;;;;16.51;70.45;95826.47;4959369;28;20329;-83
2022/08/30 03:53:47;;;;;;;7.97;6.32;;;;;;;16.55;70.44;95826.97;4957367;28;20180;-82
2022/08/30 03:56:13;;;;;;;6.63;5.50;;;;;;;16.54;70.57;95823.53;4961126;28;20203;-83
2022/08/30 03:58:39;;;;;;;8.25;5.75;;;;;;;16.54;70.23;95817.47;4974549;28;20180;-83
2022/08/30 04:01:05;;;;;;;7.68;5.53;;;;;;;16.56;70.44;95824.16;4969677;28;20668;-82
2022/08/30 04:03:30;;;;;;;9.13;6.07;;;;;;;16.51;70.49;95817.81;4971411;28;20235;-83
2022/08/30 04:05:56;;;;;;;8.52;5.97;;;;;;;16.55;70.05;95826.97;4972913;28;20216;-82
2022/08/30 04:08:21;;;;;;;7.80;6.43;;;;;;;16.54;70.22;95815.66;4960108;28;20691;-84
2022/08/30 04:10:47;;;;;;;7.35;5.90;;;;;;;16.50;70.26;95816.19;4958846;28;20199;-83
2022/08/30 04:13:17;;;;;;;8.27;5.57;;;;;;;16.58;69.66;95823.97;4959165;28;20183;-83
2022/08/30 04:15:42;;;;;;;9.95;6.28;;;;;;;16.53;70.24;95826.31;4974369;28;20203;-83
2022/08/30 04:18:07;;;;;;;11.88;5.60;;;;;;;16.59;70.18;95822.97;4956211;28;20754;-83
2022/08/30 04:20:33;;;;;;;10.73;6.53;;;;;;;16.55;70.19;95827.78;4955596;28;20191;-84
2022/08/30 04:22:58;;;;;;;6.47;5.85;;;;;;;16.56;70.02;95834.63;4956204;28;20655;-84
2022/08/30 04:25:24;;;;;;;8.77;6.03;;;;;;;16.57;70.21;95827.59;4957788;28;20212;-83
2022/08/30 04:27:49;;;;;;;7.55;5.90;;;;;;;16.59;70.48;95829.03;4965098;28;20230;-83
2022/08/30 04:30:15;;;;;;;6.53;5.47;;;;;;;16.72;69.86;95830.28;4974956;28;20223;-84
2022/08/30 04:32:41;;;;;;;6.68;5.78;;;;;;;16.75;69.61;95822.84;4956280;28;20262;-83
2022/08/30 04:35:08;;;;;;;10.07;6.88;;;;;;;16.67;69.96;95821.09;4954566;28;20283;-83
2022/08/30 04:37:34;;;;;;;8.32;6.35;;;;;;;16.67;70.30;95828.16;4958492;28;20629;-83
2022/08/30 04:39:59;;;;;;;7.85;6.15;;;;;;;16.73;70.23;95824.03;4966579;28;20267;-84
2022/08/30 04:42:30;;;;;;;8.18;6.10;;;;;;;16.70;70.57;95828.66;4958007;28;20205;-83
2022/08/30 04:44:55;;;;;;;6.97;5.78;;;;;;;16.85;70.11;95827.84;4951928;28;20653;-81
2022/08/30 04:47:21;;;;;;;6.88;6.25;;;;;;;16.87;70.06;95829.31;4990712;28;20234;-82
2022/08/30 04:49:46;;;;;;;8.43;6.10;;;;;;;16.97;69.79;95840.34;4971640;28;20215;-83
2022/08/30 04:52:11;;;;;;;6.95;6.20;;;;;;;17.04;69.79;95840.41;4958067;28;20176;-83
2022/08/30 04:54:37;;;;;;;9.23;7.03;;;;;;;17.10;69.43;95844.97;4973881;28;20192;-82
2022/08/30 04:57:04;;;;;;;8.52;6.30;;;;;;;17.18;69.28;95847.50;4976703;28;20204;-81
2022/08/30 04:59:30;;;;;;;8.88;6.28;;;;;;;17.17;69.62;95851.13;4974495;28;20191;-81
2022/08/30 05:01:55;;;;;;;8.65;6.40;;;;;;;17.31;69.53;95854.72;4992437;28;20198;-81
2022/08/30 05:04:20;;;;;;;9.55;6.18;;;;;;;17.44;68.79;95857.53;4955126;28;20220;-81
2022/08/30 05:06:45;;;;;;;10.65;6.97;;;;;;;17.71;67.92;95855.25;4956868;28;20257;-80
2022/08/30 05:09:11;;;;;;;8.70;6.78;;;;;;;17.93;66.67;95858.72;4962523;28;20192;-79
2022/08/30 05:11:37;;;;;;;8.18;6.20;;;;;;;18.05;66.58;95858.06;4972008;28;20246;-82
2022/08/30 05:14:03;;;;;;;6.72;5.95;;;;;;;18.06;66.40;95859.69;4973757;28;20266;-82
2022/08/30 05:16:28;;;;;;;8.73;5.70;;;;;;;18.14;66.58;95856.16;4974788;28;20299;-78
2022/08/30 05:18:53;;;;;;;9.00;6.15;;;;;;;18.23;66.17;95855.03;4957529;28;20528;-78
2022/08/30 05:21:22;;;;;;;7.45;6.60;;;;;;;18.26;66.68;95859.09;4972075;28;20192;-81
2022/08/30 05:23:48;;;;;;;7.82;6.65;;;;;;;18.38;65.68;95866.31;4956922;28;20208;-82
2022/08/30 05:26:22;;;;;;;11.32;6.88;;;;;;;18.53;65.14;95860.94;4957663;28;21047;-82
2022/08/30 05:28:48;;;;;;;8.80;6.85;;;;;;;18.63;64.92;95861.44;4958551;28;20782;-80
2022/08/30 05:31:20;;;;;;;8.55;6.93;;;;;;;18.71;65.45;95855.25;4993226;28;20222;-81
2022/08/30 05:33:47;;;;;;;7.65;6.70;;;;;;;18.63;65.47;95856.19;4958592;28;20194;-81
2022/08/30 05:36:13;;;;;;;7.25;6.55;;;;;;;18.79;64.60;95863.03;4991001;28;20211;-82
2022/08/30 05:38:39;;;;;;;10.35;6.50;;;;;;;18.89;64.28;95862.69;4966330;28;20235;-81
2022/08/30 05:41:04;;;;;;;10.38;7.53;;;;;;;19.04;64.08;95873.94;4962776;28;20589;-82
2022/08/30 05:43:30;;;;;;;9.23;6.90;;;;;;;19.13;63.32;95871.97;4975114;28;20215;-81
2022/08/30 05:46:07;;;;;;;9.77;6.65;;;;;;;19.25;63.28;95870.41;4958823;28;20294;-81
2022/08/30 05:48:33;;;;;;;9.50;7.25;;;;;;;19.36;62.96;95877.78;4957491;28;20630;-81
2022/08/30 05:51:10;;;;;;;7.65;6.68;;;;;;;19.63;61.65;95877.97;4966365;28;20180;-81
2022/08/30 05:53:35;;;;;;;7.35;6.60;;;;;;;19.75;61.91;95879.00;4974919;28;20282;-80
2022/08/30 05:56:04;;;;;;;8.82;6.80;;;;;;;19.84;61.54;95882.28;4962025;28;20290;-81
2022/08/30 05:58:29;;;;;;;8.20;6.85;;;;;;;20.02;60.79;95878.09;4992880;28;20180;-81
2022/08/30 06:00:54;;;;;;;8.57;6.13;;;;;;;19.98;60.48;95876.06;4972746;28;20203;-82
2022/08/30 06:03:20;;;;;;;10.27;7.15;;;;;;;20.03;60.61;95874.44;4956916;28;20204;-80
2022/08/30 06:05:45;;;;;;;8.20;6.93;;;;;;;19.94;61.50;95869.56;4951158;28;20215;-83
2022/08/30 06:08:10;;;;;;;8.40;6.57;;;;;;;19.87;61.80;95876.63;4954399;28;20188;-81
2022/08/30 06:10:35;;;;;;;9.18;7.13;;;;;;;19.80;62.09;95873.97;4950387;28;20219;-81
2022/08/30 06:13:01;;;;;;;7.53;6.22;;;;;;;19.90;61.99;95873.59;4946158;28;20547;-82
2022/08/30 06:15:26;;;;;;;10.55;6.80;;;;;;;19.92;61.60;95867.13;4969422;28;20742;-82
2022/08/30 06:17:51;;;;;;;11.25;6.82;;;;;;;19.86;61.60;95867.09;4952912;28;20191;-82
2022/08/30 06:20:19;;;;;;;12.77;7.85;;;;;;;19.88;61.88;95876.44;4969937;28;20194;-83
2022/08/30 06:22:44;;;;;;;10.43;7.05;;;;;;;19.98;61.64;95870.81;4973944;28;20702;-83
2022/08/30 06:25:10;;;;;;;8.25;5.97;;;;;;;19.86;62.16;95878.44;4966279;28;20184;-82
2022/08/30 06:27:36;;;;;;;7.60;6.90;;;;;;;20.09;61.12;95872.84;4955957;28;20665;-82
2022/08/30 06:30:01;;;;;;;8.48;6.28;;;;;;;20.25;60.79;95875.13;4971043;28;20184;-82
2022/08/30 06:32:27;;;;;;;9.50;6.55;;;;;;;20.25;61.13;95875.13;4973950;28;20184;-83
2022/08/30 06:34:52;;;;;;;7.55;6.75;;;;;;;20.49;60.30;95879.03;4956093;28;20195;-82
2022/08/30 06:37:18;;;;;;;8.13;6.38;;;;;;;20.56;59.91;95873.78;4973694;28;20295;-83
2022/08/30 06:39:43;;;;;;;9.70;6.55;;;;;;;20.67;59.18;95867.88;4976797;28;20286;-82
2022/08/30 06:42:08;;;;;;;7.50;6.68;;;;;;;20.89;59.28;95863.22;4960260;28;20208;-83
2022/08/30 06:44:34;;;;;;;7.93;5.97;;;;;;;20.91;58.84;95863.84;4954387;28;20226;-83
2022/08/30 06:46:59;;;;;;;7.35;6.55;;;;;;;21.05;58.83;95869.94;4955482;28;20649;-83
2022/08/30 06:49:24;;;;;;;8.23;7.20;;;;;;;21.03;58.61;95871.97;4992031;28;20192;-82
2022/08/30 06:51:50;;;;;;;8.48;6.43;;;;;;;21.10;58.81;95872.75;4971386;28;20248;-82
2022/08/30 06:54:15;;;;;;;8.57;6.78;;;;;;;21.02;59.03;95873.75;4974005;28;20319;-82
2022/08/30 06:56:40;;;;;;;8.50;6.10;;;;;;;21.28;58.75;95888.78;4974168;28;20231;-82
2022/08/30 06:59:06;;;;;;;6.80;6.10;;;;;;;21.44;57.43;95884.91;4960992;28;20652;-82
2022/08/30 07:01:31;;;;;;;7.22;6.40;;;;;;;21.67;57.03;95895.84;4978358;28;20188;-82
2022/08/30 07:03:57;;;;;;;6.43;5.82;;;;;;;21.95;56.41;95895.53;4971872;28;20681;-82
2022/08/30 07:06:24;;;;;;;8.07;6.75;;;;;;;22.03;55.81;95900.56;4977720;28;20211;-82
2022/08/30 07:08:50;;;;;;;7.10;5.97;;;;;;;21.86;56.12;95893.31;4948119;28;20192;-82
2022/08/30 07:11:24;;;;;;;7.22;6.53;;;;;;;21.73;57.05;95886.25;4961486;28;20537;-82
2022/08/30 07:13:50;;;;;;;7.97;6.90;;;;;;;21.93;56.50;95888.84;4974078;28;20305;-82
2022/08/30 07:16:15;;;;;;;8.82;6.47;;;;;;;22.10;55.70;95887.38;4972651;28;20215;-82
2022/08/30 07:18:49;;;;;;;8.13;6.38;;;;;;;22.22;55.69;95882.19;4974812;28;20194;-82
2022/08/30 07:21:17;;;;;;;9.68;6.60;;;;;;;22.34;55.04;95889.25;4977009;28;20186;-82
2022/08/30 07:23:43;;;;;;;8.25;6.63;;;;;;;22.16;55.15;95896.25;4990075;28;20549;-83
2022/08/30 07:26:12;;;;;;;6.55;5.90;;;;;;;22.05;55.47;95889.78;4977555;28;20210;-81
2022/08/30 07:28:38;;;;;;;10.52;7.10;;;;;;;21.85;56.83;95897.81;4975921;28;20191;-82
2022/08/30 07:31:04;;;;;;;6.53;5.88;;;;;;;21.92;56.91;95892.50;4972618;28;20180;-83
2022/08/30 07:33:30;;;;;;;8.52;6.47;;;;;;;21.80;57.22;95892.31;4960016;28;20187;-83
2022/08/30 07:35:55;;;;;;;7.88;6.43;;;;;;;21.74;57.56;95885.25;4953262;28;20215;-82
2022/08/30 07:38:20;;;;;;;7.30;6.00;;;;;;;21.87;57.37;95900.25;4971494;28;20219;-78
2022/08/30 07:40:46;;;;;;;10.18;6.97;;;;;;;22.01;57.73;95893.88;4974012;28;20190;-83
2022/08/30 07:43:11;;;;;;;9.05;6.38;;;;;;;22.05;57.59;95897.72;4969654;28;20320;-83
2022/08/30 07:45:37;;;;;;;6.60;6.00;;;;;;;22.32;57.10;95903.72;4955800;28;20207;-83
2022/08/30 07:48:03;;;;;;;7.25;6.55;;;;;;;22.39;56.42;95901.84;4964101;28;20188;-83
2022/08/30 07:50:29;;;;;;;7.28;6.55;;;;;;;22.36;57.27;95909.41;4959899;28;20601;-82
2022/08/30 07:52:54;;;;;;;8.18;7.38;;;;;;;22.40;56.68;95902.66;4970027;28;20191;-81
2022/08/30 07:55:19;;;;;;;8.02;6.95;;;;;;;22.34;56.58;95902.47;4965988;28;20215;-81
2022/08/30 07:57:45;;;;;;;8.00;7.22;;;;;;;22.61;56.61;95899.66;4984533;28;20282;-82
2022/08/30 08:00:10;;;;;;;7.60;6.90;;;;;;;22.77;56.21;95907.09;4958978;28;20329;-81
2022/08/30 08:02:36;;;;;;;8.80;7.03;;;;;;;22.89;56.17;95908.06;4976345;28;20628;-82
2022/08/30 08:05:03;;;;;;;7.70;6.90;;;;;;;22.94;55.47;95902.09;4971719;28;20188;-82
2022/08/30 08:07:30;;;;;;;6.90;6.18;;;;;;;23.01;55.74;95900.22;4960048;28;20190;-82
2022/08/30 08:09:55;;;;;;;8.23;7.35;;;;;;;23.35;53.54;95898.09;4993517;28;20683;-82
2022/08/30 08:12:20;;;;;;;6.97;6.05;;;;;;;23.28;54.52;95900.78;4958173;28;20180;-82
2022/08/30 08:14:46;;;;;;;8.13;6.93;;;;;;;23.41;53.82;95903.34;4957460;28;20188;-82
2022/08/30 08:17:11;;;;;;;9.38;6.70;;;;;;;23.75;52.58;95898.50;4992991;28;20230;-82
2022/08/30 08:19:36;;;;;;;9.45;6.35;;;;;;;23.88;52.01;95902.84;4973068;28;20192;-82
2022/08/30 08:22:02;;;;;;;7.43;6.72;;;;;;;23.98;51.03;95911.09;4960878;28;20184;-83
2022/08/30 08:24:27;;;;;;;7.78;6.53;;;;;;;24.14;50.91;95907.03;4960811;28;20319;-84
2022/08/30 08:26:53;;;;;;;7.47;6.65;;;;;;;23.96;51.01;95903.38;4962228;28;20210;-82
2022/08/30 08:29:19;;;;;;;8.60;6.90;;;;;;;23.92;50.21;95898.72;4953493;28;20730;-82
2022/08/30 08:31:45;;;;;;;6.30;5.70;;;;;;;23.95;50.77;95901.75;4957955;28;20184;-82
2022/08/30 08:34:11;;;;;;;7.75;6.82;;;;;;;23.77;50.60;95903.59;4988097;28;20205;-82
2022/08/30 08:36:36;;;;;;;6.63;5.72;;;;;;;23.99;52.30;95905.56;4975483;28;20211;-82
2022/08/30 08:39:03;;;;;;;8.35;6.25;;;;;;;24.13;50.77;95908.06;4958155;28;20214;-83
2022/08/30 08:41:55;;;;;;;9.20;7.18;;;;;;;24.13;49.96;95908.06;4969494;28;20189;-82
2022/08/30 08:44:49;;;;;;;8.48;5.97;;;;;;;24.36;50.44;95908.19;4959650;28;20778;-81
2022/08/30 08:47:29;;;;;;;8.63;5.95;;;;;;;24.48;48.80;95906.41;4958763;28;20239;-82
2022/08/30 08:50:01;;;;;;;7.13;6.05;;;;;;;24.56;49.38;95911.38;4968949;28;20176;-81
2022/08/30 08:55:28;;;;;;;7.10;5.93;;;;;;;24.68;48.97;95899.97;4990982;28;20269;-80
2022/08/30 08:57:55;;;;;;;9.05;6.05;;;;;;;24.81;48.40;95899.75;4976379;28;20188;-82
2022/08/30 09:00:20;;;;;;;10.23;6.63;;;;;;;24.75;48.98;95896.19;4972620;28;20188;-82
2022/08/30 09:02:51;;;;;;;8.60;6.40;;;;;;;24.45;49.42;95901.50;4975917;28;20595;-82
2022/08/30 09:05:18;;;;;;;8.00;6.53;;;;;;;24.77;48.69;95899.44;4975393;28;20188;-83
2022/08/30 09:07:48;;;;;;;6.65;5.80;;;;;;;24.77;48.90;95895.97;4976210;28;20563;-83
2022/08/30 09:10:13;;;;;;;9.90;5.88;;;;;;;24.92;48.28;95892.88;4975268;28;20172;-80
2022/08/30 09:12:39;;;;;;;6.45;5.63;;;;;;;25.30;47.16;95887.16;5000764;28;20188;-82
2022/08/30 09:15:22;;;;;;;9.00;6.38;;;;;;;25.13;47.87;95887.84;4983681;28;20176;-81
2022/08/30 09:18:04;;;;;;;6.57;5.85;;;;;;;25.20;46.69;95886.91;4997850;28;20191;-82
2022/08/30 09:20:42;;;;;;;6.85;6.13;;;;;;;25.34;45.25;95889.09;4997083;28;20180;-82
2022/08/30 09:23:26;;;;;;;7.40;5.65;;;;;;;25.37;45.91;95887.84;4991068;28;20216;-81
2022/08/30 09:25:54;;;;;;;6.20;5.60;;;;;;;25.49;44.80;95878.00;4959943;28;20583;-82
2022/08/30 09:28:23;;;;;;;7.03;5.20;;;;;;;25.75;45.09;95883.91;4963017;28;20208;-83
2022/08/30 09:31:17;;;;;;;7.85;5.90;;;;;;;25.54;44.42;95878.13;4964047;28;20185;-82
2022/08/30 09:34:06;;;;;;;5.88;5.32;;;;;;;25.52;44.19;95884.69;4979651;28;20183;-82
2022/08/30 09:36:34;;;;;;;6.07;5.47;;;;;;;25.57;42.84;95874.97;4977834;28;20210;-83
2022/08/30 09:39:14;;;;;;;7.05;5.22;;;;;;;25.60;43.15;95871.03;4978738;28;20188;-83
2022/08/30 09:41:42;;;;;;;7.45;5.70;;;;;;;25.46;45.17;95869.69;4976758;28;20648;-81
2022/08/30 09:44:10;;;;;;;7.13;5.10;;;;;;;25.64;43.13;95872.22;4959359;28;20207;-82
2022/08/30 09:46:47;;;;;;;7.55;5.00;;;;;;;25.88;42.79;95871.13;4977518;28;20207;-82
2022/08/30 09:49:32;;;;;;;7.28;5.13;;;;;;;25.87;42.69;95866.84;4974129;28;20189;-82
2022/08/30 09:52:16;;;;;;;5.65;5.03;;;;;;;26.05;41.34;95873.84;4973942;28;20190;-82
2022/08/30 09:55:03;;;;;;;9.00;5.60;;;;;;;26.10;42.40;95871.31;4990741;28;20187;-83
2022/08/30 09:57:47;;;;;;;5.35;4.80;;;;;;;26.09;42.50;95869.69;4987769;28;20187;-82
2022/08/30 10:00:24;;;;;;;6.43;5.82;;;;;;;26.28;41.96;95867.63;4971855;28;20187;-81
2022/08/30 10:03:01;;;;;;;6.13;5.45;;;;;;;26.36;41.87;95866.44;4963189;28;20203;-82
2022/08/30 10:05:46;;;;;;;7.65;4.93;;;;;;;26.09;41.36;95868.88;4980008;28;20204;-82
2022/08/30 10:08:30;;;;;;;7.60;5.53;;;;;;;26.10;42.19;95859.84;4990424;28;20194;-81
2022/08/30 10:11:03;;;;;;;8.23;5.57;;;;;;;26.10;42.47;95858.00;4987122;28;20191;-81
2022/08/30 10:13:49;;;;;;;6.57;5.93;;;;;;;26.06;41.36;95861.34;4972556;28;20180;-81
2022/08/30 10:16:41;;;;;;;6.30;5.75;;;;;;;26.27;41.22;95861.50;4956581;28;20251;-81
2022/08/30 10:19:34;;;;;;;6.40;5.80;;;;;;;26.43;40.29;95859.97;4958387;28;20597;-81
2022/08/30 10:22:14;;;;;;;6.80;6.10;;;;;;;26.56;41.30;95853.53;4990605;28;20203;-82
2022/08/30 10:24:49;;;;;;;6.53;5.57;;;;;;;26.32;42.11;95844.00;4971307;28;20664;-82
2022/08/30 10:27:37;;;;;;;7.78;5.53;;;;;;;25.93;41.59;95838.50;4970721;28;20217;-81
2022/08/30 10:30:10;;;;;;;7.78;5.65;;;;;;;25.94;42.72;95842.78;4957241;28;20274;-81
2022/08/30 10:33:06;;;;;;;7.45;6.07;;;;;;;26.23;42.86;95841.72;4957265;28;20203;-81
2022/08/30 10:35:43;;;;;;;8.95;7.00;;;;;;;26.16;41.99;95838.41;4975656;28;20212;-81
2022/08/30 10:38:25;;;;;;;7.03;5.75;;;;;;;25.94;41.71;95842.78;4976331;28;20187;-81
2022/08/30 10:41:20;;;;;;;7.10;6.40;;;;;;;25.78;42.23;95835.53;4964007;28;20184;-83
2022/08/30 10:43:55;;;;;;;6.80;6.15;;;;;;;25.61;42.20;95830.91;4989439;28;20602;-82
2022/08/30 10:46:35;;;;;;;8.15;6.13;;;;;;;25.84;41.79;95830.09;4955240;28;20727;-82
2022/08/30 10:49:03;;;;;;;6.90;6.20;;;;;;;25.93;42.23;95833.19;4978969;28;20199;-82
2022/08/30 10:51:38;;;;;;;6.75;6.07;;;;;;;25.95;42.41;95839.88;4976977;28;20191;-81
2022/08/30 10:54:09;;;;;;;8.32;6.25;;;;;;;25.97;41.48;95826.31;4959485;28;20176;-82
2022/08/30 10:56:37;;;;;;;7.38;5.80;;;;;;;26.10;42.07;95834.03;4977433;28;20216;-81
2022/08/30 10:59:04;;;;;;;6.43;5.82;;;;;;;26.23;42.08;95841.72;4973090;28;20726;-81
2022/08/30 11:01:38;;;;;;;7.95;6.30;;;;;;;26.11;41.15;95834.84;4960617;28;20199;-81
2022/08/30 11:04:25;;;;;;;8.55;6.03;;;;;;;26.35;40.74;95825.72;4974631;28;20200;-81
2022/08/30 11:07:07;;;;;;;7.63;5.88;;;;;;;26.01;40.96;95830.16;4974999;28;20270;-81
2022/08/30 11:10:11;;;;;;;8.32;6.15;;;;;;;26.23;40.85;95832.94;4958861;28;20192;-82
2022/08/30 11:13:01;;;;;;;7.13;5.85;;;;;;;26.22;41.97;95837.44;4939809;28;20202;-81
2022/08/30 11:15:30;;;;;;;8.90;6.90;;;;;;;26.08;41.25;95836.13;4966711;28;20227;-82
2022/08/30 11:18:10;;;;;;;7.15;6.50;;;;;;;25.92;41.66;95824.41;4965245;28;20691;-81
2022/08/30 11:20:45;;;;;;;5.75;5.25;;;;;;;26.34;42.04;95834.75;4977237;28;20191;-82
2022/08/30 11:23:19;;;;;;;7.05;5.72;;;;;;;26.34;40.66;95833.94;4957352;28;20592;-80
2022/08/30 11:26:00;;;;;;;5.70;5.15;;;;;;;26.67;40.34;95834.00;4974431;28;20210;-81
2022/08/30 11:28:35;;;;;;;6.03;5.43;;;;;;;26.57;39.62;95823.16;4960691;28;20191;-81
2022/08/30 11:31:19;;;;;;;6.35;5.55;;;;;;;26.96;39.45;95837.41;4978040;28;20191;-82
2022/08/30 11:33:47;;;;;;;9.10;5.90;;;;;;;26.85;39.85;95832.13;4983450;28;20238;-83
2022/08/30 11:36:31;;;;;;;8.15;5.40;;;;;;;26.50;39.83;95836.66;4959592;28;20211;-83
2022/08/30 11:39:04;;;;;;;6.63;5.50;;;;;;;26.45;39.88;95836.56;4978104;28;20188;-83
2022/08/30 11:41:42;;;;;;;5.72;5.10;;;;;;;26.59;40.82;95837.03;4964656;28;20590;-83
2022/08/30 11:44:23;;;;;;;7.05;5.90;;;;;;;26.27;40.61;95829.56;4974437;28;20208;-83